Romoe Maersk — OXLC2 — position and weather

sailwx.info

Track history (hours):
 
Tides and Currents Weather Stations Pressure Air Temp Water Temp Dewpoint Dewpoint Depression Visibility Wind Speed Wind Dir Waves Ship Positions

Romoe Maersk

Last reported at 2014-Aug-22 08:31 UTC. Time now 2014-Aug-22 09:51 UTC.
Position N 35°54' E 014°51'.

Length 171 m; draft 6.5 m.

Type: Ship. MMSI: 220209000.

Date/timePositionNaut miles runAvg speedWind from/ knotsBaromVisibWave heightAir tempDewpointWater temp
2014-Aug-22 08:31N 35°54' E 014°51'0 0.1
2014-Aug-22 07:16N 35°54' E 014°51'0 0.0
2014-Aug-22 06:31N 35°54' E 014°51'0 0.0
2014-Aug-22 05:31N 35°54' E 014°51'0 0.0
2014-Aug-22 04:31N 35°54' E 014°51'0 0.0
2014-Aug-22 03:31N 35°54' E 014°51'0 0.0
2014-Aug-22 02:31N 35°54' E 014°51'0 0.0
2014-Aug-22 01:31N 35°54' E 014°51'0 0.0
2014-Aug-22 00:31N 35°54' E 014°51'0 0.0
2014-Aug-21 23:31N 35°54' E 014°51'0 0.0
2014-Aug-21 22:25N 35°54' E 014°51'0 0.0
2014-Aug-21 21:34N 35°54' E 014°51'0 0.0
2014-Aug-21 20:33N 35°54' E 014°51'0 0.0
2014-Aug-21 19:33N 35°54' E 014°51'0 0.0
2014-Aug-21 18:24N 35°54' E 014°51'0 0.0
2014-Aug-21 17:33N 35°54' E 014°51'0 0.0
2014-Aug-21 16:33N 35°54' E 014°51'0 0.0
2014-Aug-21 15:33N 35°54' E 014°51'0 0.0
2014-Aug-21 14:33N 35°54' E 014°51'0 0.0
2014-Aug-21 13:33N 35°54' E 014°51'0 0.0
2014-Aug-21 12:33N 35°54' E 014°51'0 0.0
2014-Aug-21 11:33N 35°54' E 014°51'0 0.0
2014-Aug-21 10:33N 35°54' E 014°51'0 0.0
2014-Aug-21 09:33N 35°54' E 014°51'1 0.7
2014-Aug-21 08:34N 35°55' E 014°52'8 8.4
2014-Aug-21 07:34N 36°02' E 014°57'9 8.8
2014-Aug-21 06:34N 36°09' E 015°04'8 8.5
2014-Aug-21 05:34N 36°15' E 015°12'9 8.7
2014-Aug-21 04:34N 36°21' E 015°19'9 8.9
2014-Aug-21 03:34N 36°27' E 015°27'  
2014-Aug-14 19:29N 36°23' E 023°24'1111.5
2014-Aug-14 18:33N 36°32' E 023°31'1111.4
2014-Aug-14 17:33N 36°42' E 023°39'1111.5
2014-Aug-14 16:33N 36°52' E 023°45'1111.4
2014-Aug-14 15:33N 37°01' E 023°54'1611.6
2014-Aug-14 14:10N 37°14' E 024°06'712.3
2014-Aug-14 13:33N 37°20' E 024°12'1512.6
2014-Aug-14 12:23N 37°32' E 024°22'1011.8
2014-Aug-14 11:33N 37°40' E 024°30'13412.0
2014-Aug-14 00:25N 39°40' E 025°43'1312.2
2014-Aug-13 23:21N 39°52' E 025°51'1012.4
2014-Aug-13 22:33N 40°00' E 025°58'1111.1
2014-Aug-13 21:33N 40°02' E 026°12'1312.5
2014-Aug-13 20:33N 40°12' E 026°23'67 3.5
2014-Aug-13 01:33N 40°46' E 027°38'5911.2
2014-Aug-12 20:17N 40°56' E 028°54'2 3.1
2014-Aug-12 19:33N 40°58' E 028°56'1 0.9
2014-Aug-12 18:32N 40°58' E 028°58'  
Track history (hours):
 
Tides and Currents Weather Stations Pressure Air Temp Water Temp Dewpoint Dewpoint Depression Visibility Wind Speed Wind Dir Waves Ship Positions

Romoe Maersk

Last reported at 2014-Aug-22 08:31 UTC. Time now 2014-Aug-22 09:51 UTC.
Position N 35°54' E 014°51'.

Length 171 m; draft 6.5 m.

Type: Ship. MMSI: 220209000.

Date/timePositionNaut miles runAvg speedWind from/ knotsBaromVisibWave heightAir tempDewpointWater temp
2014-Aug-22 08:31N 35°54' E 014°51'0 0.1
2014-Aug-22 07:16N 35°54' E 014°51'0 0.0
2014-Aug-22 06:31N 35°54' E 014°51'0 0.0
2014-Aug-22 05:31N 35°54' E 014°51'0 0.0
2014-Aug-22 04:31N 35°54' E 014°51'0 0.0
2014-Aug-22 03:31N 35°54' E 014°51'0 0.0
2014-Aug-22 02:31N 35°54' E 014°51'0 0.0
2014-Aug-22 01:31N 35°54' E 014°51'0 0.0
2014-Aug-22 00:31N 35°54' E 014°51'0 0.0
2014-Aug-21 23:31N 35°54' E 014°51'0 0.0
2014-Aug-21 22:25N 35°54' E 014°51'0 0.0
2014-Aug-21 21:34N 35°54' E 014°51'0 0.0
2014-Aug-21 20:33N 35°54' E 014°51'0 0.0
2014-Aug-21 19:33N 35°54' E 014°51'0 0.0
2014-Aug-21 18:24N 35°54' E 014°51'0 0.0
2014-Aug-21 17:33N 35°54' E 014°51'0 0.0
2014-Aug-21 16:33N 35°54' E 014°51'0 0.0
2014-Aug-21 15:33N 35°54' E 014°51'0 0.0
2014-Aug-21 14:33N 35°54' E 014°51'0 0.0
2014-Aug-21 13:33N 35°54' E 014°51'0 0.0
2014-Aug-21 12:33N 35°54' E 014°51'0 0.0
2014-Aug-21 11:33N 35°54' E 014°51'0 0.0
2014-Aug-21 10:33N 35°54' E 014°51'0 0.0
2014-Aug-21 09:33N 35°54' E 014°51'1 0.7
2014-Aug-21 08:34N 35°55' E 014°52'8 8.4
2014-Aug-21 07:34N 36°02' E 014°57'9 8.8
2014-Aug-21 06:34N 36°09' E 015°04'8 8.5
2014-Aug-21 05:34N 36°15' E 015°12'9 8.7
2014-Aug-21 04:34N 36°21' E 015°19'9 8.9
2014-Aug-21 03:34N 36°27' E 015°27'  
2014-Aug-14 19:29N 36°23' E 023°24'1111.5
2014-Aug-14 18:33N 36°32' E 023°31'1111.4
2014-Aug-14 17:33N 36°42' E 023°39'1111.5
2014-Aug-14 16:33N 36°52' E 023°45'1111.4
2014-Aug-14 15:33N 37°01' E 023°54'1611.6
2014-Aug-14 14:10N 37°14' E 024°06'712.3
2014-Aug-14 13:33N 37°20' E 024°12'1512.6
2014-Aug-14 12:23N 37°32' E 024°22'1011.8
2014-Aug-14 11:33N 37°40' E 024°30'13412.0
2014-Aug-14 00:25N 39°40' E 025°43'1312.2
2014-Aug-13 23:21N 39°52' E 025°51'1012.4
2014-Aug-13 22:33N 40°00' E 025°58'1111.1
2014-Aug-13 21:33N 40°02' E 026°12'1312.5
2014-Aug-13 20:33N 40°12' E 026°23'67 3.5
2014-Aug-13 01:33N 40°46' E 027°38'5911.2
2014-Aug-12 20:17N 40°56' E 028°54'2 3.1
2014-Aug-12 19:33N 40°58' E 028°56'1 0.9
2014-Aug-12 18:32N 40°58' E 028°58'  

Dump ship's entire track history